Time;durP1;ratioP1;P1;durP2;ratioP2;P2;SDS_P1;SDS_P2;PMS_P1;PMS_P2;Temp;Humidity;BMP_temperature;BMP_pressure;BME280_temperature;BME280_humidity;BME280_pressure;Samples;Min_cycle;Max_cycle;Signal;HPM_P1;HPM_P2
2020/12/14 00:00:11;;;;;;;35.30;11.63;;;;;;;0.98;88.42;101206.25;1817531;77;21237;-88
2020/12/14 00:02:38;;;;;;;35.78;11.70;;;;;;;1.10;88.79;101202.95;1848003;77;21044;-89
2020/12/14 00:05:07;;;;;;;40.30;13.62;;;;;;;0.92;88.82;101199.84;1847918;77;21190;-89
2020/12/14 00:07:34;;;;;;;38.58;12.18;;;;;;;0.75;89.86;101199.16;1847589;77;21118;-88
2020/12/14 00:10:01;;;;;;;33.45;11.88;;;;;;;0.83;88.85;101207.05;1847997;77;21524;-89
2020/12/14 00:12:29;;;;;;;34.92;11.55;;;;;;;0.84;89.08;101201.23;1848018;77;21241;-89
2020/12/14 00:14:55;;;;;;;34.53;11.75;;;;;;;0.68;89.89;101203.55;1847984;77;21126;-89
2020/12/14 00:17:21;;;;;;;44.63;14.05;;;;;;;1.13;88.53;101207.90;1847869;77;20956;-88
2020/12/14 00:19:48;;;;;;;43.78;14.13;;;;;;;1.16;88.07;101213.35;1848040;77;21098;-88
2020/12/14 00:22:14;;;;;;;36.73;12.95;;;;;;;0.96;88.65;101220.19;1848060;77;21182;-89
2020/12/14 00:24:40;;;;;;;34.03;11.45;;;;;;;1.21;88.30;101210.98;1848068;77;21247;-89
2020/12/14 00:27:06;;;;;;;35.10;10.90;;;;;;;1.03;88.92;101214.47;1848002;77;21110;-88
2020/12/14 00:29:32;;;;;;;31.60;11.53;;;;;;;0.77;89.62;101213.59;1847840;77;20959;-89
2020/12/14 00:31:59;;;;;;;38.65;12.95;;;;;;;1.10;88.43;101220.20;1847741;77;21061;-89
2020/12/14 00:34:25;;;;;;;42.25;13.85;;;;;;;0.84;89.26;101210.52;1848002;77;21161;-89
2020/12/14 00:36:51;;;;;;;35.98;11.97;;;;;;;0.86;89.79;101206.69;1790983;77;21966;-89
2020/12/14 00:39:17;;;;;;;35.05;11.30;;;;;;;0.83;89.74;101203.58;1804227;79;21137;-88
2020/12/14 00:41:43;;;;;;;32.70;11.80;;;;;;;0.99;89.10;101204.73;1804567;79;21170;-88
2020/12/14 00:44:09;;;;;;;35.78;10.93;;;;;;;0.90;88.79;101198.67;1799851;79;21197;-88
2020/12/14 00:46:35;;;;;;;29.35;10.03;;;;;;;0.62;90.62;101197.14;1804371;79;20948;-88
2020/12/14 00:49:01;;;;;;;34.48;12.88;;;;;;;1.09;89.04;101192.03;1804394;79;21107;-89
2020/12/14 00:51:29;;;;;;;39.40;13.00;;;;;;;0.66;90.66;101188.31;1804224;79;21587;-89
2020/12/14 00:53:56;;;;;;;36.90;12.33;;;;;;;0.64;90.58;101186.33;1804380;79;21173;-88
2020/12/14 00:56:22;;;;;;;44.93;12.28;;;;;;;0.89;90.17;101183.77;1804532;79;21083;-87
2020/12/14 00:58:50;;;;;;;33.10;11.48;;;;;;;0.42;91.30;101178.23;1804395;79;21151;-89
2020/12/14 01:01:18;;;;;;;36.98;11.05;;;;;;;0.52;91.68;101180.63;1777755;80;21601;-89
2020/12/14 01:03:44;;;;;;;36.23;11.83;;;;;;;0.40;92.23;101173.61;1783005;79;21145;-89
2020/12/14 01:06:10;;;;;;;38.63;12.88;;;;;;;0.37;92.68;101167.34;1789706;79;21232;-88
2020/12/14 01:08:37;;;;;;;35.00;11.25;;;;;;;0.39;92.51;101166.67;1789797;79;21105;-88
2020/12/14 01:11:03;;;;;;;34.63;10.68;;;;;;;0.62;92.10;101164.49;1778913;79;21209;-88
2020/12/14 01:13:29;;;;;;;36.85;11.65;;;;;;;0.60;92.45;101169.14;1738911;81;21174;-88
2020/12/14 01:15:55;;;;;;;47.30;12.30;;;;;;;0.52;91.94;101158.60;1765749;81;20901;-88
2020/12/14 01:18:21;;;;;;;38.20;12.50;;;;;;;0.50;92.42;101156.14;1765832;81;21535;-89
2020/12/14 01:20:47;;;;;;;37.63;12.93;;;;;;;0.71;92.02;101150.62;1765770;81;21015;-89
2020/12/14 01:23:13;;;;;;;35.55;11.15;;;;;;;0.94;91.16;101152.70;1765890;81;21139;-89
2020/12/14 01:25:39;;;;;;;35.75;11.90;;;;;;;0.63;90.77;101163.48;1765774;81;21090;-88
2020/12/14 01:28:10;;;;;;;37.65;11.10;;;;;;;0.72;91.58;101153.61;1765545;81;21107;-88
2020/12/14 01:30:36;;;;;;;40.70;13.43;;;;;;;0.63;91.79;101153.69;1765848;81;21721;-89
2020/12/14 01:33:03;;;;;;;37.48;11.97;;;;;;;0.65;92.42;101157.50;1765746;81;21118;-88
2020/12/14 01:35:29;;;;;;;43.80;14.13;;;;;;;0.63;92.32;101151.03;1765870;81;21122;-89
2020/12/14 01:37:55;;;;;;;39.60;12.35;;;;;;;0.66;92.42;101153.83;1765745;81;21090;-88
2020/12/14 01:40:22;;;;;;;37.13;12.37;;;;;;;0.74;92.09;101159.06;1765715;81;21143;-88
2020/12/14 01:42:49;;;;;;;40.58;12.53;;;;;;;0.89;91.75;101153.27;1765642;81;21142;-87
2020/12/14 01:45:16;;;;;;;37.20;11.85;;;;;;;0.92;90.72;101161.88;1765683;81;21255;-88
2020/12/14 01:47:45;;;;;;;35.33;11.63;;;;;;;0.77;91.28;101165.84;1765760;81;21182;-88
2020/12/14 01:50:13;;;;;;;37.88;12.65;;;;;;;0.89;90.87;101163.88;1765777;81;21242;-88
2020/12/14 01:52:45;;;;;;;40.23;13.38;;;;;;;0.75;91.98;101174.47;1765864;81;21461;-89
2020/12/14 01:55:15;;;;;;;44.88;15.18;;;;;;;0.77;92.05;101179.92;1765787;81;21190;-89
2020/12/14 01:57:41;;;;;;;39.27;14.07;;;;;;;0.70;91.42;101171.53;1779052;79;21153;-89
2020/12/14 02:00:10;;;;;;;41.28;14.47;;;;;;;0.94;90.93;101177.91;1805678;79;21038;-89
2020/12/14 02:02:37;;;;;;;40.12;12.53;;;;;;;0.76;91.78;101176.11;1805676;79;21118;-88
2020/12/14 02:05:07;;;;;;;39.35;13.22;;;;;;;0.96;91.18;101171.92;1805801;79;21153;-89
2020/12/14 02:07:33;;;;;;;37.23;13.48;;;;;;;0.95;90.63;101170.80;1805778;79;21594;-89
2020/12/14 02:10:00;;;;;;;41.20;12.88;;;;;;;0.95;90.60;101177.43;1805517;79;21605;-88
2020/12/14 02:12:27;;;;;;;33.08;11.70;;;;;;;0.81;90.94;101180.38;1844824;77;21114;-88
2020/12/14 02:14:57;;;;;;;50.08;14.13;;;;;;;0.78;91.12;101170.95;1848065;77;21547;-88
2020/12/14 02:17:26;;;;;;;40.17;14.15;;;;;;;0.87;91.21;101171.69;1843102;77;21170;-88
2020/12/14 02:19:54;;;;;;;39.45;13.70;;;;;;;0.86;91.43;101174.85;1848072;77;21138;-88
2020/12/14 02:22:23;;;;;;;39.45;12.95;;;;;;;0.92;90.98;101175.14;1847820;77;21590;-88
2020/12/14 02:25:07;;;;;;;37.45;12.33;;;;;;;0.93;91.47;101183.41;1848079;77;21154;-89
2020/12/14 02:27:35;;;;;;;38.25;12.07;;;;;;;1.01;90.65;101172.20;1843241;77;21165;-88
2020/12/14 02:30:06;;;;;;;40.10;12.60;;;;;;;0.64;91.82;101157.98;1847988;77;22498;-88
2020/12/14 02:32:32;;;;;;;40.35;12.82;;;;;;;0.63;92.40;101155.52;1848026;77;21631;-88
2020/12/14 02:34:58;;;;;;;40.05;12.25;;;;;;;1.03;91.21;101164.90;1847992;77;21046;-88
2020/12/14 02:37:31;;;;;;;45.63;12.53;;;;;;;0.65;91.71;101169.44;1848001;77;21145;-88
2020/12/14 02:39:57;;;;;;;50.38;14.60;;;;;;;0.74;91.69;101171.00;1848223;77;21957;-88
2020/12/14 02:42:25;;;;;;;42.00;14.75;;;;;;;0.79;91.70;101170.44;1848233;77;21002;-89
2020/12/14 02:44:52;;;;;;;42.60;13.78;;;;;;;0.61;92.46;101162.31;1848119;77;21165;-89
2020/12/14 02:47:19;;;;;;;42.38;13.35;;;;;;;0.66;92.50;101171.07;1848006;77;21153;-89
2020/12/14 02:49:46;;;;;;;44.03;13.28;;;;;;;0.94;91.89;101167.80;1848168;77;21189;-89
2020/12/14 02:52:13;;;;;;;38.65;13.05;;;;;;;0.69;92.76;101179.99;1848032;77;21895;-88
2020/12/14 02:54:42;;;;;;;49.30;15.08;;;;;;;0.76;92.09;101182.23;1848049;77;21050;-88
2020/12/14 02:57:08;;;;;;;44.93;13.53;;;;;;;0.81;92.13;101182.52;1848069;77;21536;-89
2020/12/14 02:59:34;;;;;;;39.35;13.25;;;;;;;0.57;92.36;101177.45;1847986;77;21118;-89
2020/12/14 03:02:00;;;;;;;41.18;13.32;;;;;;;0.80;92.27;101175.58;1847935;77;21161;-88
2020/12/14 03:04:27;;;;;;;46.35;15.43;;;;;;;0.76;92.44;101176.92;1847977;77;21220;-88
2020/12/14 03:06:53;;;;;;;44.08;14.40;;;;;;;0.96;92.23;101174.58;1848185;77;20936;-88
2020/12/14 03:09:21;;;;;;;45.55;14.43;;;;;;;1.18;90.92;101170.68;1843061;77;21165;-88
2020/12/14 03:11:48;;;;;;;40.90;13.90;;;;;;;1.15;90.50;101175.87;1849994;77;21149;-88
2020/12/14 03:14:15;;;;;;;46.68;15.55;;;;;;;0.88;91.11;101179.48;1851629;77;21189;-88
2020/12/14 03:16:45;;;;;;;48.73;16.15;;;;;;;0.94;91.84;101173.11;1825417;77;21166;-88
2020/12/14 03:19:11;;;;;;;53.58;16.10;;;;;;;0.92;91.66;101172.48;1789913;78;21169;-88
2020/12/14 03:21:37;;;;;;;48.90;14.95;;;;;;;0.65;93.16;101171.58;1790184;78;21515;-88
2020/12/14 03:24:04;;;;;;;51.25;16.07;;;;;;;0.54;93.28;101172.01;1789927;78;21212;-88
2020/12/14 03:26:30;;;;;;;53.00;16.12;;;;;;;0.79;93.15;101174.42;1790154;78;21156;-88
2020/12/14 03:28:56;;;;;;;54.23;15.32;;;;;;;0.91;92.83;101171.64;1790111;78;21878;-88
2020/12/14 03:31:22;;;;;;;42.53;14.68;;;;;;;0.93;92.82;101174.12;1764002;78;21309;-88
2020/12/14 03:33:49;;;;;;;43.78;14.25;;;;;;;0.99;92.36;101178.70;1790153;78;20927;-88
2020/12/14 03:36:15;;;;;;;40.88;13.80;;;;;;;1.09;91.84;101176.11;1789958;78;21196;-89
2020/12/14 03:38:41;;;;;;;40.28;13.83;;;;;;;1.02;91.35;101184.46;1789988;78;21118;-89
2020/12/14 03:41:08;;;;;;;38.63;14.20;;;;;;;1.06;91.60;101192.87;1790036;78;21148;-88
2020/12/14 03:43:34;;;;;;;44.48;13.62;;;;;;;1.22;90.28;101193.22;1790076;78;21240;-89
2020/12/14 03:46:00;;;;;;;45.40;14.20;;;;;;;1.06;92.02;101192.87;1790120;78;21837;-89
2020/12/14 03:48:26;;;;;;;46.88;14.98;;;;;;;1.25;90.76;101196.83;1790014;78;21228;-89
2020/12/14 03:50:53;;;;;;;50.92;15.15;;;;;;;1.33;90.48;101195.41;1790021;78;21188;-89
2020/12/14 03:53:19;;;;;;;44.05;13.75;;;;;;;1.13;91.20;101186.66;1790023;78;21249;-89
2020/12/14 03:55:45;;;;;;;37.88;12.40;;;;;;;1.40;89.92;101183.55;1790027;78;21125;-90
2020/12/14 03:58:12;;;;;;;48.80;14.03;;;;;;;1.04;91.94;101181.12;1763611;80;21136;-90
2020/12/14 04:00:38;;;;;;;34.23;12.70;;;;;;;0.79;92.63;101181.05;1789917;78;21196;-89
2020/12/14 04:03:07;;;;;;;43.48;13.25;;;;;;;0.92;92.06;101179.12;1789948;80;21705;-89
2020/12/14 04:05:34;;;;;;;40.67;12.95;;;;;;;0.74;92.70;101167.02;1789386;78;21168;-89
2020/12/14 04:08:00;;;;;;;45.98;14.50;;;;;;;0.92;92.86;101170.66;1790009;78;21192;-89
2020/12/14 04:10:27;;;;;;;43.05;15.18;;;;;;;0.85;93.49;101165.25;1789963;78;21418;-90
2020/12/14 04:12:54;;;;;;;30.08;10.48;;;;;;;0.82;93.81;101166.09;1774928;79;22357;-91
2020/12/14 04:15:20;;;;;;;38.08;12.25;;;;;;;0.53;93.64;101153.14;1790699;77;21134;-90
2020/12/14 04:17:46;;;;;;;43.10;14.33;;;;;;;0.58;94.68;101152.58;1847922;77;21214;-90
2020/12/14 04:20:12;;;;;;;41.58;13.18;;;;;;;0.62;94.18;101153.88;1847937;77;20967;-90
2020/12/14 04:22:38;;;;;;;35.30;11.88;;;;;;;0.83;94.00;101155.83;1847943;77;21126;-90
2020/12/14 04:28:45;;;;;;;40.38;13.62;;;;;;;0.96;93.32;101168.45;1847993;77;21501;-89
2020/12/14 04:31:12;;;;;;;38.40;12.88;;;;;;;1.07;92.26;101165.34;1847715;77;22024;-88
2020/12/14 04:33:41;;;;;;;41.60;12.43;;;;;;;0.70;93.11;101137.05;1747322;80;21130;-89
2020/12/14 04:36:07;;;;;;;34.83;12.10;;;;;;;0.99;92.50;101160.94;1773142;79;21208;-89
2020/12/14 04:38:34;;;;;;;39.63;11.95;;;;;;;0.69;93.49;101169.38;1773139;79;21150;-89
2020/12/14 04:41:04;;;;;;;38.33;11.93;;;;;;;0.77;93.75;101173.80;1773157;80;21157;-88
2020/12/14 04:43:37;;;;;;;30.25;10.70;;;;;;;0.53;93.98;101175.67;1773174;79;21221;-89
2020/12/14 04:46:05;;;;;;;35.43;12.25;;;;;;;0.71;94.43;101178.47;1773021;79;28288;-88
2020/12/14 04:48:31;;;;;;;39.50;11.35;;;;;;;0.75;93.66;101183.25;1758287;80;21218;-88
2020/12/14 04:50:59;;;;;;;39.25;12.80;;;;;;;0.81;93.13;101176.40;1758559;80;21227;-88
2020/12/14 04:53:26;;;;;;;34.55;11.43;;;;;;;1.19;92.48;101172.34;1754181;80;21170;-89
2020/12/14 04:55:51;;;;;;;33.25;11.25;;;;;;;0.67;93.69;101174.03;1758430;80;21764;-88
2020/12/14 04:58:17;;;;;;;34.38;11.53;;;;;;;1.06;92.47;101166.34;1758421;80;20938;-89
2020/12/14 05:00:43;;;;;;;36.53;12.10;;;;;;;1.13;91.35;101165.94;1758408;80;21631;-88
2020/12/14 05:03:09;;;;;;;31.27;11.33;;;;;;;0.93;92.68;101175.45;1758335;80;21017;-88
2020/12/14 05:05:35;;;;;;;37.60;12.23;;;;;;;1.04;92.33;101171.84;1758645;80;20914;-88
2020/12/14 05:08:01;;;;;;;34.65;11.30;;;;;;;0.97;93.16;101180.70;1758455;80;21545;-88
2020/12/14 05:10:29;;;;;;;36.00;10.88;;;;;;;0.58;94.35;101176.45;1758474;80;21160;-89
2020/12/14 05:12:56;;;;;;;31.42;10.55;;;;;;;0.89;93.70;101170.51;1758578;80;21143;-89
2020/12/14 05:15:28;;;;;;;28.57;10.78;;;;;;;1.04;92.46;101174.49;1758403;80;21431;-89
2020/12/14 05:18:12;;;;;;;30.55;10.55;;;;;;;0.97;92.85;101172.73;1758683;81;21096;-89
2020/12/14 05:20:40;;;;;;;37.25;12.50;;;;;;;0.90;92.03;101168.67;1758595;80;21236;-89
2020/12/14 05:23:09;;;;;;;37.42;12.03;;;;;;;1.01;92.63;101183.33;1758534;80;21234;-89
2020/12/14 05:25:36;;;;;;;32.40;9.63;;;;;;;1.23;91.62;101178.92;1758553;80;21215;-89
2020/12/14 05:28:14;;;;;;;36.13;12.13;;;;;;;0.71;92.86;101179.32;1758578;80;21639;-89
2020/12/14 05:30:48;;;;;;;40.30;13.00;;;;;;;1.03;93.26;101178.17;1795475;78;21076;-88
2020/12/14 05:33:21;;;;;;;29.18;10.05;;;;;;;0.95;92.77;101182.23;1823029;78;21219;-89
2020/12/14 05:35:47;;;;;;;36.65;11.38;;;;;;;1.13;91.96;101188.50;1730840;82;21518;-89
2020/12/14 05:38:23;;;;;;;35.98;11.08;;;;;;;0.89;92.72;101178.98;1730705;82;21153;-89
2020/12/14 05:40:56;;;;;;;35.08;11.73;;;;;;;0.79;93.97;101182.37;1730869;82;21188;-88
2020/12/14 05:43:25;;;;;;;33.85;11.40;;;;;;;0.78;93.74;101200.13;1706268;82;21218;-89
2020/12/14 05:45:52;;;;;;;37.42;11.00;;;;;;;1.14;93.34;101193.61;1730836;82;21204;-89
2020/12/14 05:48:34;;;;;;;37.67;11.93;;;;;;;0.96;92.96;101198.45;1730830;82;21093;-89
2020/12/14 05:51:06;;;;;;;32.30;12.18;;;;;;;1.02;92.86;101196.91;1727016;82;21216;-89
2020/12/14 05:53:41;;;;;;;34.58;13.38;;;;;;;1.32;92.20;101195.08;1706148;84;21597;-89
2020/12/14 05:56:09;;;;;;;38.70;14.33;;;;;;;1.20;92.08;101203.19;1682510;84;21084;-89
2020/12/14 05:58:38;;;;;;;41.83;13.65;;;;;;;1.11;91.96;101205.92;1706045;84;21616;-88
2020/12/14 06:01:08;;;;;;;35.70;12.82;;;;;;;1.17;92.10;101210.19;1706074;84;21120;-89
2020/12/14 06:03:35;;;;;;;36.10;13.32;;;;;;;1.29;91.97;101212.70;1705995;84;21152;-89
2020/12/14 06:06:06;;;;;;;43.68;12.90;;;;;;;1.34;91.65;101210.33;1706162;84;21209;-89
2020/12/14 06:08:50;;;;;;;34.92;13.20;;;;;;;1.36;91.95;101217.61;1701719;84;21208;-89
2020/12/14 06:11:26;;;;;;;38.85;13.60;;;;;;;1.31;91.79;101217.33;1698170;84;21181;-88
2020/12/14 06:14:00;;;;;;;31.57;11.40;;;;;;;1.29;91.69;101224.14;1701484;84;21204;-89
2020/12/14 06:16:32;;;;;;;37.98;11.65;;;;;;;1.40;91.44;101231.34;1701727;84;21211;-89
2020/12/14 06:18:58;;;;;;;32.08;11.75;;;;;;;1.64;90.67;101240.34;1701552;84;21227;-88
2020/12/14 06:21:38;;;;;;;44.98;14.38;;;;;;;1.38;91.20;101237.33;1701679;84;21196;-89
2020/12/14 06:24:06;;;;;;;49.25;15.90;;;;;;;1.17;92.05;101240.71;1701322;84;21437;-89
2020/12/14 06:26:36;;;;;;;38.33;13.25;;;;;;;1.17;92.45;101238.06;1701442;84;21180;-89
2020/12/14 06:29:02;;;;;;;41.13;14.63;;;;;;;1.22;91.79;101241.81;1701481;84;21649;-89
2020/12/14 06:31:37;;;;;;;46.40;14.58;;;;;;;1.17;92.76;101244.19;1705280;78;21530;-88
2020/12/14 06:34:07;;;;;;;41.18;14.38;;;;;;;1.51;91.52;101244.98;1830616;78;21124;-89
2020/12/14 06:36:39;;;;;;;42.38;14.87;;;;;;;1.58;91.33;101245.88;1764078;81;21209;-89
2020/12/14 06:39:27;;;;;;;41.00;15.45;;;;;;;1.13;92.65;101245.06;1764086;81;21142;-89
2020/12/14 06:42:03;;;;;;;63.68;17.67;;;;;;;1.40;91.95;101237.98;1764341;81;21111;-89
2020/12/14 06:44:29;;;;;;;51.00;15.18;;;;;;;1.13;93.00;101237.09;1760209;81;21135;-88
2020/12/14 06:46:59;;;;;;;81.28;24.47;;;;;;;1.31;92.70;101250.02;1764130;81;20961;-89
2020/12/14 06:49:31;;;;;;;81.85;23.00;;;;;;;1.46;91.88;101253.17;1756661;81;21811;-89
2020/12/14 06:51:57;;;;;;;50.33;16.50;;;;;;;1.45;91.81;101252.36;1764483;81;21162;-89
2020/12/14 06:54:45;;;;;;;50.20;15.55;;;;;;;1.36;92.60;101246.31;1738785;81;21185;-88
2020/12/14 06:57:18;;;;;;;51.53;16.57;;;;;;;1.42;92.49;101249.25;1645756;85;21145;-88
2020/12/14 06:59:52;;;;;;;42.93;14.87;;;;;;;1.45;92.38;101251.54;1645691;85;21248;-89
2020/12/14 07:02:18;;;;;;;51.37;17.07;;;;;;;1.31;92.84;101253.17;1645938;85;21370;-88
2020/12/14 07:04:44;;;;;;;49.63;16.35;;;;;;;1.46;92.60;101255.83;1637188;85;21199;-89
2020/12/14 07:07:16;;;;;;;47.10;15.30;;;;;;;1.20;93.37;101256.27;1606304;88;21156;-88
2020/12/14 07:09:41;;;;;;;41.50;14.70;;;;;;;1.35;93.18;101247.81;1606300;88;21707;-89
2020/12/14 07:12:15;;;;;;;46.00;14.47;;;;;;;1.44;92.81;101256.03;1604599;87;21016;-87
2020/12/14 07:14:49;;;;;;;45.80;16.27;;;;;;;1.65;91.52;101239.34;1667349;84;21105;-88
2020/12/14 07:17:25;;;;;;;38.75;15.78;;;;;;;1.34;93.34;101250.16;1632617;87;21283;-86
2020/12/14 07:19:57;;;;;;;41.98;15.08;;;;;;;1.30;93.45;101247.05;1616420;88;21184;-87
2020/12/14 07:22:31;;;;;;;44.65;13.13;;;;;;;1.32;93.23;101254.34;1616573;88;21637;-87
2020/12/14 07:25:04;;;;;;;43.00;14.00;;;;;;;1.39;93.73;101250.95;1616474;88;21175;-87
2020/12/14 07:27:33;;;;;;;40.17;14.00;;;;;;;1.63;92.39;101250.66;1614564;88;21199;-88
2020/12/14 07:30:08;;;;;;;40.38;14.28;;;;;;;1.53;92.72;101256.73;1616210;88;21160;-87
2020/12/14 07:32:36;;;;;;;42.17;14.05;;;;;;;1.70;92.17;101246.23;1616388;88;21183;-86
2020/12/14 07:35:08;;;;;;;37.95;13.65;;;;;;;1.27;93.84;101247.92;1593044;88;21570;-87
2020/12/14 07:37:35;;;;;;;52.75;15.28;;;;;;;1.72;93.06;101256.19;1616556;88;21196;-87
2020/12/14 07:40:10;;;;;;;51.55;16.97;;;;;;;1.69;92.31;101253.90;1616562;88;21276;-87
2020/12/14 07:42:44;;;;;;;44.53;14.18;;;;;;;1.74;92.64;101254.17;1615403;88;21640;-87
2020/12/14 07:45:23;;;;;;;45.70;15.53;;;;;;;1.35;93.28;101243.83;1563241;90;21727;-86
2020/12/14 07:47:51;;;;;;;40.00;14.15;;;;;;;1.50;93.24;101244.67;1541129;93;21288;-85
2020/12/14 07:50:26;;;;;;;49.48;15.80;;;;;;;1.39;93.36;101243.80;1551479;91;21162;-86
2020/12/14 07:52:54;;;;;;;50.88;16.55;;;;;;;1.21;94.28;101238.85;1540010;93;22508;-86
2020/12/14 07:55:23;;;;;;;42.10;13.38;;;;;;;1.46;94.81;101227.44;1613512;86;21263;-86
2020/12/14 07:57:50;;;;;;;46.70;13.95;;;;;;;1.17;94.85;101232.24;1571464;91;21280;-86
2020/12/14 08:00:23;;;;;;;45.63;15.15;;;;;;;1.41;94.04;101226.34;1571579;91;21238;-86
2020/12/14 08:02:50;;;;;;;43.08;14.50;;;;;;;1.53;93.98;101228.37;1571803;91;26776;-86
2020/12/14 08:08:58;;;;;;;51.10;14.70;;;;;;;1.56;93.19;101228.51;1585908;90;21710;-87
2020/12/14 08:11:27;;;;;;;47.43;14.83;;;;;;;1.49;93.11;101232.89;1585996;90;21226;-88
2020/12/14 08:13:53;;;;;;;44.18;14.70;;;;;;;1.47;94.08;101242.86;1591311;87;21213;-89
2020/12/14 08:16:20;;;;;;;43.23;14.87;;;;;;;1.77;93.77;101233.87;1593536;87;21125;-89
2020/12/14 08:18:49;;;;;;;43.40;15.25;;;;;;;1.83;92.54;101238.14;1634783;87;21264;-89
2020/12/14 08:21:26;;;;;;;52.90;14.93;;;;;;;1.95;92.67;101229.48;1635124;87;21248;-88
2020/12/14 08:24:01;;;;;;;49.73;15.25;;;;;;;1.62;93.53;101230.42;1634943;87;21259;-91
2020/12/14 08:26:30;;;;;;;55.88;17.25;;;;;;;1.58;93.99;101231.27;1605564;88;21820;-89
2020/12/14 08:29:00;;;;;;;45.40;14.80;;;;;;;1.34;94.34;101240.35;1604573;88;21730;-88
2020/12/14 08:31:41;;;;;;;40.73;14.00;;;;;;;1.87;93.40;101249.52;1604719;88;21357;-87
2020/12/14 08:34:10;;;;;;;43.48;14.90;;;;;;;1.98;92.65;101261.52;1587286;89;21150;-88
2020/12/14 08:36:39;;;;;;;43.87;14.90;;;;;;;1.98;92.31;101260.19;1590382;89;21602;-88
2020/12/14 08:39:12;;;;;;;45.30;14.93;;;;;;;1.88;92.75;101242.36;1610376;89;21207;-88
2020/12/14 08:41:38;;;;;;;50.05;15.65;;;;;;;1.90;92.09;101241.68;1607626;89;21235;-88
2020/12/14 08:44:04;;;;;;;46.23;14.45;;;;;;;1.74;92.65;101243.55;1610456;89;21903;-88
2020/12/14 08:46:32;;;;;;;46.10;14.28;;;;;;;1.74;92.65;101243.55;1611503;87;20993;-88
2020/12/14 08:48:59;;;;;;;50.52;15.75;;;;;;;1.76;93.11;101238.84;1639557;86;21163;-87
2020/12/14 08:51:30;;;;;;;46.55;15.18;;;;;;;1.90;92.86;101239.02;1643358;86;21215;-88
2020/12/14 08:54:16;;;;;;;47.03;15.50;;;;;;;1.45;94.36;101237.75;1664665;86;21154;-88
2020/12/14 09:00:43;;;;;;;;;;;;;;;;;;;;;
2020/12/14 09:03:09;;;;;;;45.98;15.23;;;;;;;1.80;92.89;101235.34;1560858;91;21648;-89
2020/12/14 09:09:15;;;;;;;45.83;16.40;;;;;;;1.78;93.09;101222.23;1533387;93;21228;-88
2020/12/14 09:11:49;;;;;;;51.60;17.15;;;;;;;1.67;94.34;101217.39;1533384;93;21276;-88
2020/12/14 09:14:22;;;;;;;;;;;;;;;1.63;93.38;101217.45;1530895;93;21782;-88
2020/12/14 09:16:54;;;;;;;54.55;16.52;;;;;;;1.38;94.81;101209.45;1540110;92;26769;-88
2020/12/14 09:19:26;;;;;;;48.42;15.43;;;;;;;1.45;95.45;101217.84;1458980;98;21271;-87
2020/12/14 09:21:54;;;;;;;47.40;16.80;;;;;;;1.83;94.03;101212.89;1459505;98;21277;-88
2020/12/14 09:24:32;;;;;;;51.80;17.37;;;;;;;1.98;93.86;101218.98;1465166;97;21235;-88
2020/12/14 09:27:08;;;;;;;49.18;17.37;;;;;;;1.99;93.11;101208.66;1462447;97;21951;-87
2020/12/14 09:29:37;;;;;;;54.90;17.75;;;;;;;1.96;93.15;101204.54;1465505;97;21327;-87
2020/12/14 09:32:04;;;;;;;52.88;17.85;;;;;;;1.83;92.73;101197.77;1431185;98;21328;-88
2020/12/14 09:34:31;;;;;;;57.30;17.12;;;;;;;1.95;92.93;101204.75;1457388;97;21363;-88
2020/12/14 09:37:00;;;;;;;53.28;16.55;;;;;;;2.11;92.25;101204.49;1456484;97;21470;-90
2020/12/14 09:39:30;;;;;;;50.23;16.27;;;;;;;2.33;91.33;101208.00;1454312;97;21698;-88
2020/12/14 09:41:57;;;;;;;57.55;18.25;;;;;;;2.34;90.39;101208.30;1454316;97;21171;-91
2020/12/14 09:44:31;;;;;;;46.35;15.95;;;;;;;1.83;92.89;101207.58;1471739;97;21329;-90
2020/12/14 09:47:00;;;;;;;49.83;15.65;;;;;;;2.04;92.28;101208.92;1483846;94;21233;-89
2020/12/14 09:49:27;;;;;;;41.75;14.23;;;;;;;2.14;91.76;101198.80;1518716;94;21219;-89
2020/12/14 09:51:53;;;;;;;42.60;15.72;;;;;;;2.39;91.89;101199.77;1526037;94;21634;-89
2020/12/14 09:54:19;;;;;;;46.25;15.83;;;;;;;2.54;90.56;101199.18;1508423;94;21004;-91
2020/12/14 09:56:45;;;;;;;49.55;15.98;;;;;;;2.48;90.98;101196.77;1521847;93;21267;-89
2020/12/14 09:59:12;;;;;;;45.90;13.98;;;;;;;2.54;91.11;101200.51;1545834;88;21205;-89
2020/12/14 10:01:38;;;;;;;40.63;14.15;;;;;;;2.30;91.99;101197.73;1602044;88;21668;-91
2020/12/14 10:04:04;;;;;;;45.00;16.00;;;;;;;2.20;91.40;101187.91;1601964;88;21191;-88
2020/12/14 10:06:30;;;;;;;45.70;14.47;;;;;;;2.33;92.11;101189.38;1597060;88;21355;-89
2020/12/14 10:08:57;;;;;;;48.35;16.30;;;;;;;2.44;90.39;101196.85;1602069;88;21192;-90
2020/12/14 10:11:25;;;;;;;47.17;15.58;;;;;;;2.34;92.10;101187.03;1592828;88;21219;-90
2020/12/14 10:13:52;;;;;;;51.53;16.87;;;;;;;2.23;92.18;101187.02;1570978;91;21941;-91
2020/12/14 10:16:18;;;;;;;43.73;13.75;;;;;;;2.38;91.48;101180.81;1595472;85;21603;-89
2020/12/14 10:18:45;;;;;;;42.48;13.95;;;;;;;2.59;90.55;101178.63;1648136;85;21259;-90
2020/12/14 10:21:11;;;;;;;40.60;14.00;;;;;;;2.47;90.83;101186.31;1661810;86;21158;-88
2020/12/14 10:23:37;;;;;;;42.85;15.55;;;;;;;2.80;89.99;101187.11;1717760;81;21663;-89
2020/12/14 10:26:04;;;;;;;49.58;16.48;;;;;;;2.48;91.36;101180.00;1778766;76;21503;-88
2020/12/14 10:28:30;;;;;;;46.53;14.93;;;;;;;2.19;91.56;101173.80;1853598;76;21152;-88
2020/12/14 10:30:56;;;;;;;44.08;15.30;;;;;;;2.32;92.00;101174.42;1830311;77;21089;-87
2020/12/14 10:33:22;;;;;;;46.35;14.87;;;;;;;2.41;92.23;101176.44;1839726;76;21596;-89
2020/12/14 10:35:49;;;;;;;41.18;14.00;;;;;;;2.32;92.62;101185.57;1825749;76;21200;-89
2020/12/14 10:38:15;;;;;;;51.10;15.00;;;;;;;2.14;92.30;101183.36;1842507;76;21143;-89
2020/12/14 10:40:42;;;;;;;46.25;14.68;;;;;;;2.43;92.03;101191.70;1847715;77;21042;-89
2020/12/14 10:43:08;;;;;;;43.13;15.13;;;;;;;2.40;92.15;101190.77;1847724;76;21554;-89
2020/12/14 10:45:36;;;;;;;42.75;14.23;;;;;;;2.27;91.64;101186.98;1839056;77;21142;-89
2020/12/14 10:48:03;;;;;;;46.95;15.18;;;;;;;2.53;91.16;101187.38;1818593;77;21185;-89
2020/12/14 10:50:29;;;;;;;44.95;15.83;;;;;;;2.46;91.50;101187.34;1843893;77;21208;-88
2020/12/14 10:52:55;;;;;;;43.98;15.30;;;;;;;2.42;91.64;101190.08;1828175;76;21102;-88
2020/12/14 10:55:24;;;;;;;45.67;16.23;;;;;;;2.37;92.19;101171.20;1825123;77;21173;-89
2020/12/14 10:57:52;;;;;;;46.53;15.58;;;;;;;2.35;93.07;101179.87;1818354;78;21562;-89
2020/12/14 11:00:21;;;;;;;51.42;16.17;;;;;;;2.22;93.52;101174.75;1818351;78;21106;-88
2020/12/14 11:02:46;;;;;;;42.35;14.87;;;;;;;2.43;93.47;101182.40;1831306;77;21181;-88
2020/12/14 11:05:12;;;;;;;49.65;16.30;;;;;;;2.38;92.52;101186.13;1818892;76;21077;-88
2020/12/14 11:07:38;;;;;;;52.45;16.57;;;;;;;2.41;92.81;101184.42;1864685;76;20950;-89
2020/12/14 11:10:07;;;;;;;58.55;19.55;;;;;;;2.35;92.40;101187.84;1853862;76;21106;-88
2020/12/14 11:12:34;;;;;;;59.50;18.45;;;;;;;2.31;93.07;101194.57;1770399;80;22544;-88
2020/12/14 11:15:00;;;;;;;53.42;17.05;;;;;;;2.34;93.34;101194.19;1774561;79;21217;-88
2020/12/14 11:17:26;;;;;;;54.10;17.25;;;;;;;2.29;93.73;101189.42;1765368;79;21072;-88
2020/12/14 11:19:52;;;;;;;59.83;17.90;;;;;;;2.49;93.03;101186.44;1764361;81;21502;-88
2020/12/14 11:22:18;;;;;;;51.80;15.25;;;;;;;2.43;92.71;101191.70;1764313;81;21137;-88
2020/12/14 11:24:44;;;;;;;48.30;16.75;;;;;;;2.17;93.03;101193.61;1766638;78;21030;-88
2020/12/14 11:27:10;;;;;;;54.18;18.32;;;;;;;2.22;94.06;101195.20;1779191;78;21249;-88
2020/12/14 11:29:36;;;;;;;52.23;16.75;;;;;;;2.54;93.88;101188.53;1780760;78;21303;-88
2020/12/14 11:32:02;;;;;;;60.95;20.17;;;;;;;2.34;92.70;101186.21;1775784;79;21554;-88
2020/12/14 11:34:28;;;;;;;56.48;18.67;;;;;;;2.31;92.96;101183.94;1775639;80;21188;-87
2020/12/14 11:36:54;;;;;;;51.88;17.37;;;;;;;2.13;94.15;101189.19;1767440;79;21005;-88
2020/12/14 11:39:21;;;;;;;54.93;18.40;;;;;;;2.33;93.11;101187.23;1764382;81;22005;-87